Aérodrome :
LOGIN :

S'inscrire | Disclaimer

   EN    FR    IT 

 










Légende :    VFR   VFR Marginal   IFR   IFR Intensif   IFR Très Intensif
Visi : 
Plafond : 
>= 8 km
>= 3000ft
5 à 8 km
1000 à 3000 ft
1500m à 5 km
500 à 1000 ft
800 à 1500m
200 à 500 ft
< 800m
< 200 ft
Symboles :   Orages  Brouillard  Fortes neiges  Fortes précipitations  Vent > 20 kt
SIGMETs :   Divers  Orages  Givrage  Turbulence  Onde Orograph.  Cendres Volcan.







- Altitude de l'aérodrome : 665 ft
- Code IATA : NOC


EIKN - Connaught / Knock- Ireland West

DERNIER METAR :
  • 261830Z 16008KT 9999 FEW028 BKN060 BKN120 18/17 Q1009 NOSIG

METARs EXPIRÉS :
  • 261800Z 16010KT 9999 -SHRA FEW028 BKN060 BKN120 18/17 Q1009 NOSIG
  • 261730Z 15008KT 130V190 9999 FEW018 BKN050 BKN110 18/17 Q1009 NOSIG
  • 261700Z 16009KT 130V210 9999 -SHRA FEW018 BKN050 BKN090 18/17 Q1010 NOSIG
  • 261630Z 15011KT 120V180 9999 -SHRA FEW018 BKN060 BKN090 19/17 Q1010 NOSIG
  • 261600Z 14013KT 110V190 9999 -SHRA FEW028 BKN060 BKN090 21/17 Q1010 NOSIG

TAF TAF EIKN
Valide du 26 à 18h jusqu'au 27 à 18h UTC


261700Z 2618/2718 15012KT 9999 FEW020 SCT030
TEMPO 2618/2621 4000 SHRA BKN010 SCT025CB
PROB30
TEMPO 2618/2619 3000 TSRA
BECMG 2618/2621 VRB03KT 4000 -RA BKN008
TEMPO 2621/2709 1200 RA BKN002
BECMG 2701/2704 33013KT
BECMG 2709/2711 30015G25KT 9999 BKN012
BECMG 2712/2715 33012KT NSW SCT020
Pas de NOTAMs connus pour ce terrain.
1 SIGMET publié pour la FIR Shannon (EISN) :
 
Orages noyés dans la masse
EISN SIGMET 06 VALID 261530/261900 EINN
EISN SHANNON FIR/UIR EMBD TS FCST WI N5300 W00900 - N5300 W01100 - N5430 W01100 - N5445 W00900 - N5520 W00800 - N5425 W00810 - N5300 W00900 TOP FL350 MOV N AT 25KT NC=



MET'MAP, la Météo Aéronautique d'un coup d'oeil ! - Copyright ORBIFLY Décembre 2007 - Disclaimer

ORBIFLY MET'MAP TEAM :

Programmation & Développement : Alexandra Zaïnal
Conception & Développement : Baudouin d'Aumeries
Co-Programmation & Développement : Marc-Olivier Méhu
Soutien technique & logistique : Manuel Goepfert

Contact : metmap@orbifly.com




SOURCES & CREDITS :

   NOAA